sensor_id;sensor_type;location;lat;lon;timestamp;pressure;altitude;pressure_sealevel;temperature;humidity
73671;BME280;61968;48.178;11.566;2023-10-19T00:00:47;94349.41;;;8.56;48.44
73671;BME280;61968;48.178;11.566;2023-10-19T00:03:16;94347.56;;;8.56;48.33
73671;BME280;61968;48.178;11.566;2023-10-19T00:05:43;94344.94;;;8.56;48.33
73671;BME280;61968;48.178;11.566;2023-10-19T00:08:10;94348.13;;;8.58;48.49
73671;BME280;61968;48.178;11.566;2023-10-19T00:10:42;94350.25;;;8.62;48.51
73671;BME280;61968;48.178;11.566;2023-10-19T00:13:08;94345.50;;;8.64;48.42
73671;BME280;61968;48.178;11.566;2023-10-19T00:15:37;94327.31;;;8.62;48.25
73671;BME280;61968;48.178;11.566;2023-10-19T00:18:05;94327.13;;;8.69;47.72
73671;BME280;61968;48.178;11.566;2023-10-19T00:20:48;94331.63;;;8.68;47.90
73671;BME280;61968;48.178;11.566;2023-10-19T00:23:18;94328.13;;;8.63;48.03
73671;BME280;61968;48.178;11.566;2023-10-19T00:25:49;94329.19;;;8.62;48.18
73671;BME280;61968;48.178;11.566;2023-10-19T00:28:17;94332.84;;;8.61;48.11
73671;BME280;61968;48.178;11.566;2023-10-19T00:30:43;94329.41;;;8.60;48.19
73671;BME280;61968;48.178;11.566;2023-10-19T00:33:10;94325.19;;;8.59;48.29
73671;BME280;61968;48.178;11.566;2023-10-19T00:35:44;94324.41;;;8.58;48.29
73671;BME280;61968;48.178;11.566;2023-10-19T00:38:15;94321.47;;;8.55;48.79
73671;BME280;61968;48.178;11.566;2023-10-19T00:40:53;94308.03;;;8.56;48.50
73671;BME280;61968;48.178;11.566;2023-10-19T00:43:28;94307.75;;;8.53;48.92
73671;BME280;61968;48.178;11.566;2023-10-19T00:45:58;94302.78;;;8.56;48.67
73671;BME280;61968;48.178;11.566;2023-10-19T00:48:26;94297.00;;;8.60;48.53
73671;BME280;61968;48.178;11.566;2023-10-19T00:50:53;94287.81;;;8.62;48.53
73671;BME280;61968;48.178;11.566;2023-10-19T00:53:34;94286.50;;;8.65;48.64
73671;BME280;61968;48.178;11.566;2023-10-19T00:56:02;94286.75;;;8.63;48.25
73671;BME280;61968;48.178;11.566;2023-10-19T00:58:31;94284.41;;;8.67;48.27
73671;BME280;61968;48.178;11.566;2023-10-19T01:01:02;94286.25;;;8.66;48.10
73671;BME280;61968;48.178;11.566;2023-10-19T01:03:31;94281.75;;;8.62;48.36
73671;BME280;61968;48.178;11.566;2023-10-19T01:06:02;94283.28;;;8.57;48.43
73671;BME280;61968;48.178;11.566;2023-10-19T01:08:37;94277.56;;;8.66;48.16
73671;BME280;61968;48.178;11.566;2023-10-19T01:11:07;94277.78;;;8.59;48.26
73671;BME280;61968;48.178;11.566;2023-10-19T01:13:36;94278.78;;;8.53;48.62
73671;BME280;61968;48.178;11.566;2023-10-19T01:16:03;94289.81;;;8.50;48.47
73671;BME280;61968;48.178;11.566;2023-10-19T01:18:30;94275.59;;;8.51;48.55
73671;BME280;61968;48.178;11.566;2023-10-19T01:20:58;94292.69;;;8.48;48.65
73671;BME280;61968;48.178;11.566;2023-10-19T01:23:29;94298.44;;;8.40;48.63
73671;BME280;61968;48.178;11.566;2023-10-19T01:25:56;94287.69;;;8.47;48.94
73671;BME280;61968;48.178;11.566;2023-10-19T01:28:32;94310.91;;;8.50;48.49
73671;BME280;61968;48.178;11.566;2023-10-19T01:31:14;94303.75;;;8.45;48.69
73671;BME280;61968;48.178;11.566;2023-10-19T01:33:42;94307.97;;;8.46;48.90
73671;BME280;61968;48.178;11.566;2023-10-19T01:36:09;94302.22;;;8.49;48.72
73671;BME280;61968;48.178;11.566;2023-10-19T01:38:51;94297.75;;;8.55;48.41
73671;BME280;61968;48.178;11.566;2023-10-19T01:41:19;94281.94;;;8.55;48.63
73671;BME280;61968;48.178;11.566;2023-10-19T01:43:46;94300.38;;;8.55;48.77
73671;BME280;61968;48.178;11.566;2023-10-19T01:46:14;94295.66;;;8.57;48.66
73671;BME280;61968;48.178;11.566;2023-10-19T01:48:47;94299.06;;;8.52;48.70
73671;BME280;61968;48.178;11.566;2023-10-19T01:51:15;94289.28;;;8.48;48.77
73671;BME280;61968;48.178;11.566;2023-10-19T01:53:41;94284.78;;;8.43;49.21
73671;BME280;61968;48.178;11.566;2023-10-19T01:56:11;94299.44;;;8.34;49.00
73671;BME280;61968;48.178;11.566;2023-10-19T01:58:38;94287.88;;;8.35;49.05
73671;BME280;61968;48.178;11.566;2023-10-19T02:01:05;94284.44;;;8.34;49.18
73671;BME280;61968;48.178;11.566;2023-10-19T02:03:40;94274.44;;;8.37;49.15
73671;BME280;61968;48.178;11.566;2023-10-19T02:06:07;94272.63;;;8.37;49.53
73671;BME280;61968;48.178;11.566;2023-10-19T02:08:42;94266.84;;;8.45;49.33
73671;BME280;61968;48.178;11.566;2023-10-19T02:11:10;94255.31;;;8.51;49.18
73671;BME280;61968;48.178;11.566;2023-10-19T02:13:44;94278.50;;;8.54;48.83
73671;BME280;61968;48.178;11.566;2023-10-19T02:16:13;94284.56;;;8.50;49.10
73671;BME280;61968;48.178;11.566;2023-10-19T02:18:42;94286.13;;;8.51;49.38
73671;BME280;61968;48.178;11.566;2023-10-19T02:21:07;94280.00;;;8.40;49.20
73671;BME280;61968;48.178;11.566;2023-10-19T02:23:38;94275.88;;;8.17;49.93
73671;BME280;61968;48.178;11.566;2023-10-19T02:26:04;94272.94;;;8.14;50.23
73671;BME280;61968;48.178;11.566;2023-10-19T02:28:31;94269.25;;;8.15;49.60
73671;BME280;61968;48.178;11.566;2023-10-19T02:31:02;94264.44;;;8.06;50.03
73671;BME280;61968;48.178;11.566;2023-10-19T02:33:39;94270.34;;;8.19;49.69
73671;BME280;61968;48.178;11.566;2023-10-19T02:36:06;94258.06;;;8.29;49.44
73671;BME280;61968;48.178;11.566;2023-10-19T02:38:39;94260.97;;;8.33;49.28
73671;BME280;61968;48.178;11.566;2023-10-19T02:41:06;94260.47;;;8.36;49.19
73671;BME280;61968;48.178;11.566;2023-10-19T02:43:33;94264.78;;;8.47;48.99
73671;BME280;61968;48.178;11.566;2023-10-19T02:46:00;94258.97;;;8.45;49.13
73671;BME280;61968;48.178;11.566;2023-10-19T02:48:27;94265.28;;;8.44;48.85
73671;BME280;61968;48.178;11.566;2023-10-19T02:50:54;94256.59;;;8.44;49.21
73671;BME280;61968;48.178;11.566;2023-10-19T02:53:19;94255.03;;;8.48;48.91
73671;BME280;61968;48.178;11.566;2023-10-19T02:55:46;94245.84;;;8.50;49.18
73671;BME280;61968;48.178;11.566;2023-10-19T02:58:12;94246.66;;;8.56;48.86
73671;BME280;61968;48.178;11.566;2023-10-19T03:00:40;94237.66;;;8.52;49.07
73671;BME280;61968;48.178;11.566;2023-10-19T03:03:05;94241.34;;;8.51;48.58
73671;BME280;61968;48.178;11.566;2023-10-19T03:05:32;94232.44;;;8.57;48.91
73671;BME280;61968;48.178;11.566;2023-10-19T03:07:59;94227.13;;;8.47;48.91
73671;BME280;61968;48.178;11.566;2023-10-19T03:10:28;94225.44;;;8.35;49.61
73671;BME280;61968;48.178;11.566;2023-10-19T03:13:03;94222.09;;;8.45;48.88
73671;BME280;61968;48.178;11.566;2023-10-19T03:15:30;94227.91;;;8.47;49.20
73671;BME280;61968;48.178;11.566;2023-10-19T03:17:59;94220.28;;;8.51;48.98
73671;BME280;61968;48.178;11.566;2023-10-19T03:20:27;94219.50;;;8.50;49.37
73671;BME280;61968;48.178;11.566;2023-10-19T03:22:52;94220.81;;;8.53;49.21
73671;BME280;61968;48.178;11.566;2023-10-19T03:25:23;94209.75;;;8.51;49.07
73671;BME280;61968;48.178;11.566;2023-10-19T03:28:10;94204.94;;;8.38;49.78
73671;BME280;61968;48.178;11.566;2023-10-19T03:30:37;94202.81;;;8.40;49.70
73671;BME280;61968;48.178;11.566;2023-10-19T03:33:08;94208.09;;;8.40;49.50
73671;BME280;61968;48.178;11.566;2023-10-19T03:35:36;94203.66;;;8.45;49.81
73671;BME280;61968;48.178;11.566;2023-10-19T03:38:06;94198.94;;;8.47;49.78
73671;BME280;61968;48.178;11.566;2023-10-19T03:40:40;94196.03;;;8.49;50.01
73671;BME280;61968;48.178;11.566;2023-10-19T03:43:06;94197.63;;;8.50;50.02
73671;BME280;61968;48.178;11.566;2023-10-19T03:45:43;94199.47;;;8.49;50.01
73671;BME280;61968;48.178;11.566;2023-10-19T03:48:17;94192.38;;;8.50;50.01
73671;BME280;61968;48.178;11.566;2023-10-19T03:50:50;94191.59;;;8.54;49.86
73671;BME280;61968;48.178;11.566;2023-10-19T03:53:18;94200.03;;;8.56;50.03
73671;BME280;61968;48.178;11.566;2023-10-19T03:55:46;94202.66;;;8.56;49.77
73671;BME280;61968;48.178;11.566;2023-10-19T03:58:15;94194.25;;;8.60;49.98
73671;BME280;61968;48.178;11.566;2023-10-19T04:00:42;94188.72;;;8.61;49.79
73671;BME280;61968;48.178;11.566;2023-10-19T04:03:09;94191.63;;;8.60;50.01
73671;BME280;61968;48.178;11.566;2023-10-19T04:05:38;94188.44;;;8.57;50.19
73671;BME280;61968;48.178;11.566;2023-10-19T04:08:06;94197.63;;;8.50;50.81
73671;BME280;61968;48.178;11.566;2023-10-19T04:10:40;94199.53;;;8.60;50.21
73671;BME280;61968;48.178;11.566;2023-10-19T04:13:10;94199.25;;;8.56;50.53
73671;BME280;61968;48.178;11.566;2023-10-19T04:15:37;94196.84;;;8.54;50.73
73671;BME280;61968;48.178;11.566;2023-10-19T04:18:04;94194.78;;;8.56;50.62
73671;BME280;61968;48.178;11.566;2023-10-19T04:20:37;94192.69;;;8.58;50.93
73671;BME280;61968;48.178;11.566;2023-10-19T04:23:21;94188.94;;;8.54;51.19
73671;BME280;61968;48.178;11.566;2023-10-19T04:25:52;94181.88;;;8.60;51.12
73671;BME280;61968;48.178;11.566;2023-10-19T04:28:18;94181.13;;;8.65;51.10
73671;BME280;61968;48.178;11.566;2023-10-19T04:30:55;94162.97;;;8.68;50.87
73671;BME280;61968;48.178;11.566;2023-10-19T04:33:21;94169.59;;;8.76;50.71
73671;BME280;61968;48.178;11.566;2023-10-19T04:35:53;94162.78;;;8.80;51.04
73671;BME280;61968;48.178;11.566;2023-10-19T04:38:22;94163.06;;;8.84;50.86
73671;BME280;61968;48.178;11.566;2023-10-19T04:40:48;94160.69;;;8.87;50.53
73671;BME280;61968;48.178;11.566;2023-10-19T04:43:15;94168.88;;;8.91;50.66
73671;BME280;61968;48.178;11.566;2023-10-19T04:45:41;94157.81;;;8.89;50.60
73671;BME280;61968;48.178;11.566;2023-10-19T04:48:09;94163.88;;;8.89;50.95
73671;BME280;61968;48.178;11.566;2023-10-19T04:50:36;94167.56;;;8.93;50.56
73671;BME280;61968;48.178;11.566;2023-10-19T04:53:04;94157.03;;;8.93;50.67
73671;BME280;61968;48.178;11.566;2023-10-19T04:55:30;94161.81;;;9.12;57.55
73671;BME280;61968;48.178;11.566;2023-10-19T04:57:57;94172.00;;;9.76;52.76
73671;BME280;61968;48.178;11.566;2023-10-19T05:00:24;94181.50;;;10.18;55.40
73671;BME280;61968;48.178;11.566;2023-10-19T05:02:53;94175.13;;;10.60;54.07
73671;BME280;61968;48.178;11.566;2023-10-19T05:05:20;94169.75;;;10.96;51.72
73671;BME280;61968;48.178;11.566;2023-10-19T05:07:47;94162.06;;;11.04;52.38
73671;BME280;61968;48.178;11.566;2023-10-19T05:10:15;94160.66;;;11.22;52.36
73671;BME280;61968;48.178;11.566;2023-10-19T05:12:41;94157.41;;;11.30;51.96
73671;BME280;61968;48.178;11.566;2023-10-19T05:15:08;94155.97;;;11.53;50.66
73671;BME280;61968;48.178;11.566;2023-10-19T05:17:35;94149.78;;;11.68;50.22
73671;BME280;61968;48.178;11.566;2023-10-19T05:20:02;94145.28;;;11.74;49.34
73671;BME280;61968;48.178;11.566;2023-10-19T05:22:30;94147.81;;;11.89;49.00
73671;BME280;61968;48.178;11.566;2023-10-19T05:24:57;94148.56;;;11.95;48.96
73671;BME280;61968;48.178;11.566;2023-10-19T05:27:25;94148.44;;;12.10;47.83
73671;BME280;61968;48.178;11.566;2023-10-19T05:29:52;94143.56;;;12.22;46.96
73671;BME280;61968;48.178;11.566;2023-10-19T05:32:18;94145.47;;;11.83;45.14
73671;BME280;61968;48.178;11.566;2023-10-19T05:34:46;94161.09;;;11.40;46.17
73671;BME280;61968;48.178;11.566;2023-10-19T05:37:12;94154.38;;;11.08;46.59
73671;BME280;61968;48.178;11.566;2023-10-19T05:39:39;94155.50;;;10.87;46.91
73671;BME280;61968;48.178;11.566;2023-10-19T05:42:05;94146.56;;;10.67;47.34
73671;BME280;61968;48.178;11.566;2023-10-19T05:44:33;94142.38;;;10.56;47.81
73671;BME280;61968;48.178;11.566;2023-10-19T05:47:00;94144.22;;;10.45;48.06
73671;BME280;61968;48.178;11.566;2023-10-19T05:49:27;94134.22;;;10.32;48.10
73671;BME280;61968;48.178;11.566;2023-10-19T05:51:54;94138.47;;;10.23;48.47
73671;BME280;61968;48.178;11.566;2023-10-19T05:54:22;94132.94;;;10.14;48.72
73671;BME280;61968;48.178;11.566;2023-10-19T05:56:49;94130.31;;;10.04;48.79
73671;BME280;61968;48.178;11.566;2023-10-19T05:59:17;94134.00;;;10.03;48.75
73671;BME280;61968;48.178;11.566;2023-10-19T06:01:44;94134.00;;;10.03;48.91
73671;BME280;61968;48.178;11.566;2023-10-19T06:04:12;94136.66;;;9.98;48.95
73671;BME280;61968;48.178;11.566;2023-10-19T06:06:39;94139.03;;;9.89;49.21
73671;BME280;61968;48.178;11.566;2023-10-19T06:09:05;94146.94;;;9.84;49.42
73671;BME280;61968;48.178;11.566;2023-10-19T06:11:33;94146.94;;;9.79;49.53
73671;BME280;61968;48.178;11.566;2023-10-19T06:14:03;94148.78;;;9.78;49.68
73671;BME280;61968;48.178;11.566;2023-10-19T06:16:32;94141.63;;;9.74;49.54
73671;BME280;61968;48.178;11.566;2023-10-19T06:19:00;94150.34;;;9.69;49.79
73671;BME280;61968;48.178;11.566;2023-10-19T06:21:26;94147.69;;;9.69;49.76
73671;BME280;61968;48.178;11.566;2023-10-19T06:23:53;94156.94;;;9.71;49.54
73671;BME280;61968;48.178;11.566;2023-10-19T06:26:20;94151.91;;;9.70;49.79
73671;BME280;61968;48.178;11.566;2023-10-19T06:28:46;94149.53;;;9.68;49.75
73671;BME280;61968;48.178;11.566;2023-10-19T06:31:12;94149.78;;;9.67;49.85
73671;BME280;61968;48.178;11.566;2023-10-19T06:33:41;94150.34;;;9.69;49.77
73671;BME280;61968;48.178;11.566;2023-10-19T06:36:09;94146.13;;;9.68;49.86
73671;BME280;61968;48.178;11.566;2023-10-19T06:38:35;94144.28;;;9.68;50.14
73671;BME280;61968;48.178;11.566;2023-10-19T06:41:10;94132.13;;;9.67;50.22
73671;BME280;61968;48.178;11.566;2023-10-19T06:43:37;94134.25;;;9.65;50.05
73671;BME280;61968;48.178;11.566;2023-10-19T06:46:04;94140.84;;;9.63;50.48
73671;BME280;61968;48.178;11.566;2023-10-19T06:48:31;94130.28;;;9.63;50.37
73671;BME280;61968;48.178;11.566;2023-10-19T06:50:57;94126.56;;;9.64;50.48
73671;BME280;61968;48.178;11.566;2023-10-19T06:53:26;94131.84;;;9.64;50.54
73671;BME280;61968;48.178;11.566;2023-10-19T06:55:53;94127.66;;;9.68;50.50
73671;BME280;61968;48.178;11.566;2023-10-19T06:58:20;94131.06;;;9.68;50.62
73671;BME280;61968;48.178;11.566;2023-10-19T07:00:51;94120.25;;;9.70;50.38
73671;BME280;61968;48.178;11.566;2023-10-19T07:03:22;94125.50;;;9.70;50.60
73671;BME280;61968;48.178;11.566;2023-10-19T07:05:51;94133.97;;;9.72;50.48
73671;BME280;61968;48.178;11.566;2023-10-19T07:08:18;94133.47;;;9.80;50.43
73671;BME280;61968;48.178;11.566;2023-10-19T07:10:48;94133.22;;;9.82;50.50
73671;BME280;61968;48.178;11.566;2023-10-19T07:13:16;94139.28;;;9.82;50.47
73671;BME280;61968;48.178;11.566;2023-10-19T07:15:44;94130.03;;;9.85;50.82
73671;BME280;61968;48.178;11.566;2023-10-19T07:18:11;94128.22;;;9.85;50.95
73671;BME280;61968;48.178;11.566;2023-10-19T07:20:38;94120.00;;;9.87;50.80
73671;BME280;61968;48.178;11.566;2023-10-19T07:23:08;94127.16;;;9.91;50.98
73671;BME280;61968;48.178;11.566;2023-10-19T07:25:44;94131.63;;;9.96;50.88
73671;BME280;61968;48.178;11.566;2023-10-19T07:28:12;94138.75;;;10.01;50.88
73671;BME280;61968;48.178;11.566;2023-10-19T07:30:39;94140.06;;;10.03;50.76
73671;BME280;61968;48.178;11.566;2023-10-19T07:33:06;94131.34;;;10.08;50.73
73671;BME280;61968;48.178;11.566;2023-10-19T07:35:35;94142.19;;;10.11;51.07
73671;BME280;61968;48.178;11.566;2023-10-19T07:38:03;94125.25;;;10.17;50.77
73671;BME280;61968;48.178;11.566;2023-10-19T07:40:31;94131.88;;;10.25;51.14
73671;BME280;61968;48.178;11.566;2023-10-19T07:42:57;94131.88;;;10.25;51.31
73671;BME280;61968;48.178;11.566;2023-10-19T07:45:26;94124.97;;;10.29;51.37
73671;BME280;61968;48.178;11.566;2023-10-19T07:47:52;94116.28;;;10.34;51.21
73671;BME280;61968;48.178;11.566;2023-10-19T07:50:19;94117.03;;;10.39;51.11
73671;BME280;61968;48.178;11.566;2023-10-19T07:52:50;94110.41;;;10.47;51.02
73671;BME280;61968;48.178;11.566;2023-10-19T07:55:18;94106.16;;;10.51;51.01
73671;BME280;61968;48.178;11.566;2023-10-19T07:57:44;94109.88;;;10.55;50.44
73671;BME280;61968;48.178;11.566;2023-10-19T08:00:12;94115.66;;;10.62;50.82
73671;BME280;61968;48.178;11.566;2023-10-19T08:02:41;94110.59;;;10.66;51.27
73671;BME280;61968;48.178;11.566;2023-10-19T08:05:10;94103.47;;;10.67;51.63
73671;BME280;61968;48.178;11.566;2023-10-19T08:07:37;94113.25;;;10.71;51.41
73671;BME280;61968;48.178;11.566;2023-10-19T08:10:06;94107.41;;;10.74;51.86
73671;BME280;61968;48.178;11.566;2023-10-19T08:12:34;94102.41;;;10.78;51.68
73671;BME280;61968;48.178;11.566;2023-10-19T08:15:01;94098.69;;;10.79;52.01
73671;BME280;61968;48.178;11.566;2023-10-19T08:17:29;94101.31;;;10.84;51.81
73671;BME280;61968;48.178;11.566;2023-10-19T08:19:57;94102.88;;;10.90;51.31
73671;BME280;61968;48.178;11.566;2023-10-19T08:22:23;94099.13;;;10.96;51.42
73671;BME280;61968;48.178;11.566;2023-10-19T08:24:51;94097.25;;;11.02;51.24
73671;BME280;61968;48.178;11.566;2023-10-19T08:27:17;94087.16;;;11.09;50.85
73671;BME280;61968;48.178;11.566;2023-10-19T08:29:44;94087.66;;;11.16;50.61
73671;BME280;61968;48.178;11.566;2023-10-19T08:32:11;94083.41;;;11.20;51.23
73671;BME280;61968;48.178;11.566;2023-10-19T08:34:40;94086.81;;;11.26;50.34
73671;BME280;61968;48.178;11.566;2023-10-19T08:37:08;94087.56;;;11.31;50.48
73671;BME280;61968;48.178;11.566;2023-10-19T08:39:36;94089.91;;;11.38;50.47
73671;BME280;61968;48.178;11.566;2023-10-19T08:42:03;94088.28;;;11.42;50.60
73671;BME280;61968;48.178;11.566;2023-10-19T08:44:30;94092.75;;;11.47;50.19
73671;BME280;61968;48.178;11.566;2023-10-19T08:46:57;94082.41;;;11.50;50.35
73671;BME280;61968;48.178;11.566;2023-10-19T08:49:24;94084.25;;;11.55;50.41
73671;BME280;61968;48.178;11.566;2023-10-19T08:51:53;94086.84;;;11.60;50.27
73671;BME280;61968;48.178;11.566;2023-10-19T08:54:21;94081.50;;;11.65;50.27
73671;BME280;61968;48.178;11.566;2023-10-19T08:56:48;94088.38;;;11.66;50.52
73671;BME280;61968;48.178;11.566;2023-10-19T08:59:14;94088.34;;;11.71;50.66
73671;BME280;61968;48.178;11.566;2023-10-19T09:01:42;94083.03;;;11.71;50.77
73671;BME280;61968;48.178;11.566;2023-10-19T09:04:09;94085.69;;;11.76;50.71
73671;BME280;61968;48.178;11.566;2023-10-19T09:06:36;94085.41;;;11.78;50.71
73671;BME280;61968;48.178;11.566;2023-10-19T09:09:07;94089.09;;;11.82;50.71
73671;BME280;61968;48.178;11.566;2023-10-19T09:11:35;94084.81;;;11.86;51.34
73671;BME280;61968;48.178;11.566;2023-10-19T09:14:03;94078.16;;;11.89;51.16
73671;BME280;61968;48.178;11.566;2023-10-19T09:16:32;94087.41;;;11.91;51.17
73671;BME280;61968;48.178;11.566;2023-10-19T09:18:59;94089.22;;;11.96;50.62
73671;BME280;61968;48.178;11.566;2023-10-19T09:21:26;94088.09;;;12.02;50.66
73671;BME280;61968;48.178;11.566;2023-10-19T09:23:54;94084.38;;;12.03;50.83
73671;BME280;61968;48.178;11.566;2023-10-19T09:26:21;94082.25;;;12.05;50.28
73671;BME280;61968;48.178;11.566;2023-10-19T09:28:50;94085.13;;;12.09;50.51
73671;BME280;61968;48.178;11.566;2023-10-19T09:31:17;94071.59;;;12.10;50.85
73671;BME280;61968;48.178;11.566;2023-10-19T09:33:45;94072.69;;;12.33;51.18
73671;BME280;61968;48.178;11.566;2023-10-19T09:36:13;94080.75;;;12.47;50.84
73671;BME280;61968;48.178;11.566;2023-10-19T09:38:43;94080.72;;;12.52;51.15
73671;BME280;61968;48.178;11.566;2023-10-19T09:41:12;94071.81;;;12.67;50.80
73671;BME280;61968;48.178;11.566;2023-10-19T09:43:44;94074.00;;;12.84;50.66
73671;BME280;61968;48.178;11.566;2023-10-19T09:46:20;94079.19;;;12.94;50.58
73671;BME280;61968;48.178;11.566;2023-10-19T09:48:48;94077.16;;;13.05;50.45
73671;BME280;61968;48.178;11.566;2023-10-19T09:51:15;94070.94;;;13.14;50.10
73671;BME280;61968;48.178;11.566;2023-10-19T09:53:45;94068.16;;;13.25;49.74
73671;BME280;61968;48.178;11.566;2023-10-19T09:56:16;94062.16;;;13.33;50.08
73671;BME280;61968;48.178;11.566;2023-10-19T09:58:46;94073.59;;;13.33;50.10
73671;BME280;61968;48.178;11.566;2023-10-19T10:01:15;94082.06;;;13.35;50.31
73671;BME280;61968;48.178;11.566;2023-10-19T10:03:46;94065.19;;;13.45;49.90
73671;BME280;61968;48.178;11.566;2023-10-19T10:06:14;94067.56;;;13.47;49.84
73671;BME280;61968;48.178;11.566;2023-10-19T10:08:42;94065.88;;;13.51;50.06
73671;BME280;61968;48.178;11.566;2023-10-19T10:11:21;94049.13;;;13.55;49.85
73671;BME280;61968;48.178;11.566;2023-10-19T10:13:49;94049.75;;;13.66;49.67
73671;BME280;61968;48.178;11.566;2023-10-19T10:16:22;94039.56;;;13.73;49.21
73671;BME280;61968;48.178;11.566;2023-10-19T10:18:51;94031.78;;;13.77;48.88
73671;BME280;61968;48.178;11.566;2023-10-19T10:21:22;94028.53;;;13.80;48.95
73671;BME280;61968;48.178;11.566;2023-10-19T10:23:51;94044.34;;;13.71;49.63
73671;BME280;61968;48.178;11.566;2023-10-19T10:26:19;94052.63;;;13.70;48.96
73671;BME280;61968;48.178;11.566;2023-10-19T10:29:07;94051.03;;;13.69;49.51
73671;BME280;61968;48.178;11.566;2023-10-19T10:31:42;94045.13;;;13.72;48.87
73671;BME280;61968;48.178;11.566;2023-10-19T10:34:09;94051.94;;;13.78;49.03
73671;BME280;61968;48.178;11.566;2023-10-19T10:36:58;94040.34;;;13.74;49.14
73671;BME280;61968;48.178;11.566;2023-10-19T10:39:25;94036.50;;;13.80;49.08
73671;BME280;61968;48.178;11.566;2023-10-19T10:41:55;94022.66;;;13.83;49.02
73671;BME280;61968;48.178;11.566;2023-10-19T10:44:35;94029.63;;;13.79;49.06
73671;BME280;61968;48.178;11.566;2023-10-19T10:47:03;94030.28;;;13.71;49.17
73671;BME280;61968;48.178;11.566;2023-10-19T10:49:31;94035.81;;;13.74;48.96
73671;BME280;61968;48.178;11.566;2023-10-19T10:51:58;94020.78;;;13.84;49.02
73671;BME280;61968;48.178;11.566;2023-10-19T10:54:25;94020.91;;;13.92;48.70
73671;BME280;61968;48.178;11.566;2023-10-19T10:56:51;94009.47;;;13.92;49.16
73671;BME280;61968;48.178;11.566;2023-10-19T10:59:18;94013.44;;;13.94;49.17
73671;BME280;61968;48.178;11.566;2023-10-19T11:01:44;94007.53;;;13.97;49.00
73671;BME280;61968;48.178;11.566;2023-10-19T11:04:12;93998.78;;;13.97;49.20
73671;BME280;61968;48.178;11.566;2023-10-19T11:06:48;93996.31;;;14.00;49.61
73671;BME280;61968;48.178;11.566;2023-10-19T11:09:15;93996.59;;;13.99;49.68
73671;BME280;61968;48.178;11.566;2023-10-19T11:11:44;93990.50;;;13.98;49.52
73671;BME280;61968;48.178;11.566;2023-10-19T11:14:11;93994.13;;;14.02;49.49
73671;BME280;61968;48.178;11.566;2023-10-19T11:16:38;93987.63;;;14.09;49.15
73671;BME280;61968;48.178;11.566;2023-10-19T11:19:05;93991.28;;;14.13;49.20
73671;BME280;61968;48.178;11.566;2023-10-19T11:21:33;93992.78;;;14.19;49.65
73671;BME280;61968;48.178;11.566;2023-10-19T11:23:59;93991.19;;;14.18;49.03
73671;BME280;61968;48.178;11.566;2023-10-19T11:26:27;93989.63;;;14.17;49.63
73671;BME280;61968;48.178;11.566;2023-10-19T11:28:58;93981.38;;;14.18;49.36
73671;BME280;61968;48.178;11.566;2023-10-19T11:31:26;93978.41;;;14.20;49.27
73671;BME280;61968;48.178;11.566;2023-10-19T11:33:54;93981.56;;;14.22;49.52
73671;BME280;61968;48.178;11.566;2023-10-19T11:36:23;93970.22;;;14.30;49.82
73671;BME280;61968;48.178;11.566;2023-10-19T11:38:53;93962.56;;;14.42;49.33
73671;BME280;61968;48.178;11.566;2023-10-19T11:41:20;93953.41;;;14.48;49.28
73671;BME280;61968;48.178;11.566;2023-10-19T11:43:48;93937.25;;;14.45;49.49
73671;BME280;61968;48.178;11.566;2023-10-19T11:46:15;93927.41;;;14.45;49.79
73671;BME280;61968;48.178;11.566;2023-10-19T11:48:43;93930.84;;;14.46;50.00
73671;BME280;61968;48.178;11.566;2023-10-19T11:51:10;93933.19;;;14.47;50.69
73671;BME280;61968;48.178;11.566;2023-10-19T11:53:38;93919.31;;;14.50;50.40
73671;BME280;61968;48.178;11.566;2023-10-19T11:56:07;93918.53;;;14.50;51.10
73671;BME280;61968;48.178;11.566;2023-10-19T11:58:35;93917.25;;;14.47;50.57
73671;BME280;61968;48.178;11.566;2023-10-19T12:01:03;93906.59;;;14.47;51.26
73671;BME280;61968;48.178;11.566;2023-10-19T12:03:33;93907.88;;;14.50;50.70
73671;BME280;61968;48.178;11.566;2023-10-19T12:06:02;93910.34;;;14.46;50.58
73671;BME280;61968;48.178;11.566;2023-10-19T12:08:31;93907.09;;;14.49;51.50
73671;BME280;61968;48.178;11.566;2023-10-19T12:10:58;93903.53;;;14.54;51.81
73671;BME280;61968;48.178;11.566;2023-10-19T12:13:28;93904.88;;;14.65;51.46
73671;BME280;61968;48.178;11.566;2023-10-19T12:15:54;93896.50;;;14.72;50.96
73671;BME280;61968;48.178;11.566;2023-10-19T12:18:21;93902.66;;;14.81;51.05
73671;BME280;61968;48.178;11.566;2023-10-19T12:20:47;93907.59;;;14.88;49.69
73671;BME280;61968;48.178;11.566;2023-10-19T12:23:14;93909.94;;;14.89;49.22
73671;BME280;61968;48.178;11.566;2023-10-19T12:25:41;93909.94;;;14.89;48.54
73671;BME280;61968;48.178;11.566;2023-10-19T12:28:08;93892.59;;;14.92;48.81
73671;BME280;61968;48.178;11.566;2023-10-19T12:30:40;93892.88;;;14.90;48.36
73671;BME280;61968;48.178;11.566;2023-10-19T12:33:07;93896.03;;;14.92;48.68
73671;BME280;61968;48.178;11.566;2023-10-19T12:35:36;93892.75;;;14.95;48.35
73671;BME280;61968;48.178;11.566;2023-10-19T12:38:11;93879.78;;;14.94;48.05
73671;BME280;61968;48.178;11.566;2023-10-19T12:40:42;93869.91;;;14.94;48.50
73671;BME280;61968;48.178;11.566;2023-10-19T12:43:09;93866.50;;;15.03;48.22
73671;BME280;61968;48.178;11.566;2023-10-19T12:45:39;93866.88;;;15.10;47.95
73671;BME280;61968;48.178;11.566;2023-10-19T12:48:07;93872.56;;;15.17;48.38
73671;BME280;61968;48.178;11.566;2023-10-19T12:50:36;93872.38;;;15.13;48.06
73671;BME280;61968;48.178;11.566;2023-10-19T12:53:03;93872.56;;;15.17;47.57
73671;BME280;61968;48.178;11.566;2023-10-19T12:55:31;93868.56;;;15.28;48.12
73671;BME280;61968;48.178;11.566;2023-10-19T12:57:57;93862.34;;;15.41;47.56
73671;BME280;61968;48.178;11.566;2023-10-19T13:00:31;93862.84;;;15.44;47.01
73671;BME280;61968;48.178;11.566;2023-10-19T13:03:03;93864.41;;;15.45;47.21